Time;durP1;ratioP1;P1;durP2;ratioP2;P2;SDS_P1;SDS_P2;PMS_P1;PMS_P2;Temp;Humidity;BMP_temperature;BMP_pressure;BME280_temperature;BME280_humidity;BME280_pressure;Samples;Min_cycle;Max_cycle;Signal;HPM_P1;HPM_P2
2021/06/01 00:01:41;;;;;;;0.70;0.33;;;19.10;99.90;;;;;;20625337;23;20238;-66
2021/06/01 00:11:46;;;;;;;2.03;0.90;;;19.20;99.90;;;;;;20612148;28;20510;-66
2021/06/01 00:21:49;;;;;;;0.43;0.33;;;19.10;99.90;;;;;;20691967;28;20269;-66
2021/06/01 00:31:54;;;;;;;0.40;0.27;;;19.10;99.90;;;;;;20692447;28;20574;-67
2021/06/01 00:41:57;;;;;;;1.27;0.17;;;19.00;99.90;;;;;;20690099;28;20232;-68
2021/06/01 00:52:02;;;;;;;3.83;0.77;;;19.00;99.90;;;;;;20693073;28;20206;-68
2021/06/01 01:02:05;;;;;;;0.50;0.20;;;18.90;99.90;;;;;;20676462;23;20297;-73
2021/06/01 01:12:16;;;;;;;0.40;0.40;;;19.00;99.90;;;;;;20661615;28;20281;-74
2021/06/01 01:22:21;;;;;;;0.83;0.70;;;19.00;99.90;;;;;;20696167;28;20240;-73
2021/06/01 01:32:35;;;;;;;0.73;0.60;;;18.60;99.90;;;;;;20704482;28;20195;-69
2021/06/01 01:42:41;;;;;;;0.70;0.50;;;18.50;99.90;;;;;;20687930;28;20226;-73
2021/06/01 01:52:45;;;;;;;0.70;0.33;;;18.00;99.90;;;;;;20704675;28;20225;-72
2021/06/01 02:02:51;;;;;;;1.63;0.50;;;18.10;99.90;;;;;;20662697;23;20390;-66
2021/06/01 02:12:55;;;;;;;0.20;0.10;;;18.50;99.90;;;;;;20622485;28;20385;-68
2021/06/01 02:33:24;;;;;;;1.20;0.57;;;18.30;99.90;;;;;;20699256;28;20202;-66
2021/06/01 02:43:29;;;;;;;0.97;0.40;;;18.30;99.90;;;;;;20681885;28;20405;-67
2021/06/01 02:53:33;;;;;;;0.30;0.23;;;18.40;99.90;;;;;;20699737;28;20214;-66
2021/06/01 03:03:43;;;;;;;2.30;1.20;;;18.00;99.90;;;;;;20670577;23;20424;-73
2021/06/01 03:13:46;;;;;;;2.50;1.10;;;17.90;99.90;;;;;;20680165;28;20572;-70
2021/06/01 03:23:53;;;;;;;0.73;0.73;;;17.80;99.90;;;;;;20695731;28;20553;-72
2021/06/01 03:33:56;;;;;;;0.77;0.53;;;17.60;99.90;;;;;;20696172;28;20203;-72
2021/06/01 03:44:02;;;;;;;1.63;1.17;;;17.30;99.90;;;;;;20694518;28;20365;-71
2021/06/01 03:54:05;;;;;;;0.77;0.43;;;17.30;99.90;;;;;;20676864;28;20496;-71
2021/06/01 04:04:11;;;;;;;0.27;0.23;;;17.00;99.90;;;;;;20660801;23;20250;-67
2021/06/01 04:14:16;;;;;;;0.37;0.30;;;17.10;99.90;;;;;;20683858;28;20954;-67
2021/06/01 04:24:21;;;;;;;1.03;0.93;;;17.30;99.90;;;;;;20694157;28;20258;-68
2021/06/01 04:34:24;;;;;;;1.80;0.63;;;17.90;99.90;;;;;;20677394;28;20197;-67
2021/06/01 04:44:29;;;;;;;1.53;0.50;;;18.20;99.90;;;;;;20692311;28;20234;-66
2021/06/01 04:54:32;;;;;;;1.33;0.73;;;18.30;99.90;;;;;;20694507;28;20676;-66
2021/06/01 05:04:36;;;;;;;0.30;0.30;;;18.50;99.90;;;;;;20644104;28;20779;-68
2021/06/01 05:14:39;;;;;;;1.40;0.87;;;18.70;99.90;;;;;;20684517;28;20203;-67
2021/06/01 05:24:44;;;;;;;0.57;0.57;;;18.80;99.90;;;;;;20692581;28;20238;-67
2021/06/01 05:34:57;;;;;;;48.87;8.93;;;18.80;99.90;;;;;;20690855;28;20243;-69
2021/06/01 05:45:02;;;;;;;1.80;0.63;;;19.30;99.90;;;;;;20688197;28;20226;-67
2021/06/01 05:55:07;;;;;;;2.53;1.50;;;19.70;99.90;;;;;;20684840;28;20199;-67
2021/06/01 06:05:14;;;;;;;1.40;1.00;;;20.10;99.90;;;;;;20626174;28;20760;-69
2021/06/01 06:15:17;;;;;;;0.67;0.67;;;20.10;99.90;;;;;;20665495;28;20207;-69
2021/06/01 06:25:22;;;;;;;1.80;1.10;;;20.30;99.90;;;;;;20702931;28;20210;-70
2021/06/01 06:35:25;;;;;;;0.90;0.60;;;20.30;99.90;;;;;;20707474;28;20300;-68
2021/06/01 06:45:31;;;;;;;0.83;0.47;;;20.80;99.90;;;;;;20681586;28;20290;-66
2021/06/01 06:55:34;;;;;;;0.50;0.50;;;21.00;99.90;;;;;;20700039;28;20668;-68
2021/06/01 07:05:39;;;;;;;1.20;0.63;;;21.20;99.90;;;;;;20623225;28;20230;-69
2021/06/01 07:15:49;;;;;;;2.07;1.87;;;21.10;99.90;;;;;;20615083;28;20223;-69
2021/06/01 07:25:54;;;;;;;3.90;0.80;;;21.20;99.90;;;;;;20616093;28;20219;-70
2021/06/01 07:35:57;;;;;;;0.63;0.60;;;21.60;99.90;;;;;;20599162;28;20219;-69
2021/06/01 07:46:03;;;;;;;1.23;1.13;;;21.70;99.90;;;;;;20613658;28;20203;-66
2021/06/01 07:56:07;;;;;;;4.07;1.27;;;21.90;99.90;;;;;;20616024;28;20559;-69
2021/06/01 08:06:13;;;;;;;0.63;0.60;;;22.20;99.90;;;;;;20616130;28;20686;-70
2021/06/01 08:16:16;;;;;;;1.17;0.93;;;22.10;99.90;;;;;;20677497;28;20360;-69
2021/06/01 08:26:21;;;;;;;2.77;1.07;;;22.20;99.90;;;;;;20674806;28;20278;-68
2021/06/01 08:36:25;;;;;;;0.57;0.50;;;22.00;99.90;;;;;;20674639;28;20237;-68
2021/06/01 08:46:30;;;;;;;0.87;0.60;;;22.20;99.90;;;;;;20696687;28;20736;-68
2021/06/01 08:56:34;;;;;;;3.07;2.20;;;22.40;99.90;;;;;;20692285;28;20218;-68
2021/06/01 09:06:41;;;;;;;3.17;0.83;;;22.40;99.90;;;;;;20631921;28;20230;-69
2021/06/01 09:27:14;;;;;;;0.90;0.60;;;22.60;99.90;;;;;;20687016;28;20253;-69
2021/06/01 09:37:20;;;;;;;2.43;1.23;;;23.00;99.90;;;;;;20689016;28;20250;-66
2021/06/01 09:47:44;;;;;;;2.87;1.17;;;23.40;99.90;;;;;;20702065;28;20423;-66
2021/06/01 09:57:47;;;;;;;1.17;1.02;;;23.50;99.90;;;;;;20703920;28;20659;-67
2021/06/01 10:07:53;;;;;;;1.45;1.20;;;23.70;99.90;;;;;;20643811;28;20233;-68
2021/06/01 10:17:56;;;;;;;2.20;1.65;;;23.90;99.90;;;;;;20705654;28;20723;-67
2021/06/01 10:28:02;;;;;;;1.50;1.33;;;24.50;99.90;;;;;;20703545;28;20211;-65
2021/06/01 10:59:04;;;;;;;1.20;0.85;;;24.20;99.90;;;;;;20696198;28;20218;-66
2021/06/01 11:09:45;;;;;;;1.27;1.05;;;25.00;99.90;;;;;;20623999;28;20265;-66
2021/06/01 11:19:53;;;;;;;1.42;0.90;;;25.50;99.90;;;;;;20696912;28;20335;-67
2021/06/01 11:40:25;;;;;;;2.28;0.65;;;27.30;99.90;;;;;;20674315;28;20592;-69
2021/06/01 12:11:41;;;;;;;11.15;1.15;;;26.80;99.90;;;;;;20656708;28;20211;-68
2021/06/01 12:21:47;;;;;;;1.58;1.10;;;26.90;99.90;;;;;;20693272;28;20707;-69
2021/06/01 12:31:55;;;;;;;0.75;0.75;;;27.10;99.90;;;;;;20689447;28;20191;-68
2021/06/01 12:42:06;;;;;;;7.60;1.02;;;25.80;99.90;;;;;;20674084;28;20234;-68
2021/06/01 14:15:35;;;;;;;1.20;1.10;;;23.30;99.90;;;;;;20669929;28;20195;-68
2021/06/01 14:36:14;;;;;;;1.40;1.07;;;22.70;99.90;;;;;;20703311;28;20465;-63
2021/06/01 15:48:55;;;;;;;0.80;0.80;;;22.20;99.90;;;;;;20616749;28;20218;-67
2021/06/01 16:30:14;;;;;;;0.70;0.70;;;22.00;99.90;;;;;;20612063;28;20199;-64
2021/06/01 17:11:30;;;;;;;0.60;0.60;;;21.60;99.90;;;;;;20582096;28;20541;-67
2021/06/01 17:32:31;;;;;;;1.00;0.70;;;21.00;99.90;;;;;;20608759;28;20206;-66
2021/06/01 17:42:36;;;;;;;3.70;0.77;;;21.30;99.90;;;;;;20600555;28;20243;-66
2021/06/01 17:52:40;;;;;;;0.27;0.20;;;21.30;99.90;;;;;;20612216;28;20208;-65
2021/06/01 18:02:47;;;;;;;0.90;0.87;;;21.40;99.90;;;;;;20619645;28;20239;-66
2021/06/01 19:25:24;;;;;;;6.53;2.97;;;20.80;99.90;;;;;;20698672;28;21042;-64
2021/06/01 19:56:12;;;;;;;6.90;1.33;;;20.70;99.90;;;;;;20691281;28;20200;-65
2021/06/01 20:06:17;;;;;;;2.07;1.87;;;20.30;99.90;;;;;;20599643;28;20701;-64
2021/06/01 20:16:23;;;;;;;0.93;0.47;;;20.40;99.90;;;;;;20677306;28;20191;-64
2021/06/01 20:26:30;;;;;;;0.70;0.47;;;20.20;99.90;;;;;;20693502;28;20333;-65
2021/06/01 20:36:33;;;;;;;0.40;0.30;;;20.30;99.90;;;;;;20694651;28;20288;-65
2021/06/01 20:46:38;;;;;;;0.43;0.43;;;20.20;99.90;;;;;;20674917;28;20218;-65
2021/06/01 20:56:42;;;;;;;0.60;0.60;;;20.10;99.90;;;;;;20694519;28;20663;-63
2021/06/01 21:06:51;;;;;;;1.17;0.67;;;19.90;99.90;;;;;;20665062;28;20900;-66
2021/06/01 21:16:55;;;;;;;0.83;0.83;;;19.70;99.90;;;;;;20688137;28;20213;-65
2021/06/01 21:26:59;;;;;;;1.17;0.87;;;19.70;99.90;;;;;;20675566;28;20397;-65
2021/06/01 21:37:04;;;;;;;0.67;0.40;;;19.80;99.90;;;;;;20694239;28;20190;-65
2021/06/01 21:47:10;;;;;;;0.30;0.27;;;19.60;99.90;;;;;;20709627;28;20230;-67
2021/06/01 21:57:13;;;;;;;0.20;0.17;;;19.40;99.90;;;;;;20687045;28;20207;-66
2021/06/01 22:07:19;;;;;;;1.27;0.73;;;19.30;99.90;;;;;;20695276;28;20600;-66
2021/06/01 22:17:24;;;;;;;0.77;0.77;;;19.20;99.90;;;;;;20704444;28;20227;-66
2021/06/01 22:27:29;;;;;;;1.93;1.67;;;18.90;99.90;;;;;;20705661;28;20241;-65
2021/06/01 22:37:33;;;;;;;0.57;0.30;;;18.70;99.90;;;;;;20686091;28;20590;-65
2021/06/01 22:47:40;;;;;;;2.33;1.70;;;18.70;99.90;;;;;;20702392;28;20210;-64
2021/06/01 22:57:53;;;;;;;4.47;1.27;;;18.90;99.90;;;;;;20702170;28;20210;-65
2021/06/01 23:07:59;;;;;;;1.40;1.13;;;19.10;99.90;;;;;;20681102;28;20220;-65
2021/06/01 23:18:03;;;;;;;0.50;0.37;;;19.60;99.90;;;;;;20622154;28;20234;-65
2021/06/01 23:28:08;;;;;;;1.53;1.03;;;19.60;99.90;;;;;;20618576;28;20571;-65
2021/06/01 23:38:17;;;;;;;0.20;0.10;;;19.30;99.90;;;;;;20617702;28;20596;-65
2021/06/01 23:58:42;;;;;;;1.90;0.77;;;19.20;99.90;;;;;;20615267;28;20282;-66
